sensor_id;sensor_type;location;lat;lon;timestamp;P1;durP1;ratioP1;P2;durP2;ratioP2
1691;SDS011;843;52.054;8.552;2023-03-24T00:02:07;3.17;;;2.00;;
1691;SDS011;843;52.054;8.552;2023-03-24T00:04:34;4.03;;;2.13;;
1691;SDS011;843;52.054;8.552;2023-03-24T00:07:00;5.93;;;2.60;;
1691;SDS011;843;52.054;8.552;2023-03-24T00:09:27;5.43;;;2.20;;
1691;SDS011;843;52.054;8.552;2023-03-24T00:11:54;3.20;;;2.47;;
1691;SDS011;843;52.054;8.552;2023-03-24T00:14:22;4.03;;;1.90;;
1691;SDS011;843;52.054;8.552;2023-03-24T00:16:48;2.97;;;1.90;;
1691;SDS011;843;52.054;8.552;2023-03-24T00:19:15;5.60;;;2.57;;
1691;SDS011;843;52.054;8.552;2023-03-24T00:21:42;8.07;;;3.03;;
1691;SDS011;843;52.054;8.552;2023-03-24T00:24:09;2.33;;;1.87;;
1691;SDS011;843;52.054;8.552;2023-03-24T00:26:37;5.53;;;2.07;;
1691;SDS011;843;52.054;8.552;2023-03-24T00:29:04;7.10;;;2.23;;
1691;SDS011;843;52.054;8.552;2023-03-24T00:31:32;4.47;;;1.80;;
1691;SDS011;843;52.054;8.552;2023-03-24T00:34:04;3.17;;;2.20;;
1691;SDS011;843;52.054;8.552;2023-03-24T00:36:31;2.90;;;2.00;;
1691;SDS011;843;52.054;8.552;2023-03-24T00:38:57;3.30;;;1.97;;
1691;SDS011;843;52.054;8.552;2023-03-24T00:41:24;2.23;;;1.77;;
1691;SDS011;843;52.054;8.552;2023-03-24T00:43:52;4.90;;;2.50;;
1691;SDS011;843;52.054;8.552;2023-03-24T00:46:19;4.00;;;1.90;;
1691;SDS011;843;52.054;8.552;2023-03-24T00:48:54;2.67;;;1.90;;
1691;SDS011;843;52.054;8.552;2023-03-24T00:51:27;6.93;;;3.27;;
1691;SDS011;843;52.054;8.552;2023-03-24T00:53:54;7.00;;;2.50;;
1691;SDS011;843;52.054;8.552;2023-03-24T00:56:22;8.67;;;2.37;;
1691;SDS011;843;52.054;8.552;2023-03-24T00:58:49;3.20;;;1.90;;
1691;SDS011;843;52.054;8.552;2023-03-24T01:01:15;5.00;;;2.00;;
1691;SDS011;843;52.054;8.552;2023-03-24T01:03:42;3.77;;;2.10;;
1691;SDS011;843;52.054;8.552;2023-03-24T01:06:13;3.67;;;1.90;;
1691;SDS011;843;52.054;8.552;2023-03-24T01:08:40;4.07;;;1.90;;
1691;SDS011;843;52.054;8.552;2023-03-24T01:11:06;4.93;;;3.50;;
1691;SDS011;843;52.054;8.552;2023-03-24T01:13:33;2.70;;;1.87;;
1691;SDS011;843;52.054;8.552;2023-03-24T01:15:59;4.30;;;2.10;;
1691;SDS011;843;52.054;8.552;2023-03-24T01:18:26;2.47;;;2.10;;
1691;SDS011;843;52.054;8.552;2023-03-24T01:20:52;2.90;;;2.50;;
1691;SDS011;843;52.054;8.552;2023-03-24T01:23:21;7.67;;;2.47;;
1691;SDS011;843;52.054;8.552;2023-03-24T01:25:53;6.03;;;2.30;;
1691;SDS011;843;52.054;8.552;2023-03-24T01:28:28;4.20;;;2.60;;
1691;SDS011;843;52.054;8.552;2023-03-24T01:30:58;2.07;;;1.83;;
1691;SDS011;843;52.054;8.552;2023-03-24T01:33:24;3.87;;;1.83;;
1691;SDS011;843;52.054;8.552;2023-03-24T01:35:51;2.90;;;2.23;;
1691;SDS011;843;52.054;8.552;2023-03-24T01:38:17;2.30;;;1.67;;
1691;SDS011;843;52.054;8.552;2023-03-24T01:40:45;2.30;;;1.93;;
1691;SDS011;843;52.054;8.552;2023-03-24T01:43:15;3.23;;;1.83;;
1691;SDS011;843;52.054;8.552;2023-03-24T01:45:52;3.57;;;1.70;;
1691;SDS011;843;52.054;8.552;2023-03-24T01:48:20;2.83;;;1.73;;
1691;SDS011;843;52.054;8.552;2023-03-24T01:50:49;2.37;;;1.77;;
1691;SDS011;843;52.054;8.552;2023-03-24T01:53:15;2.60;;;1.87;;
1691;SDS011;843;52.054;8.552;2023-03-24T01:55:42;2.40;;;1.97;;
1691;SDS011;843;52.054;8.552;2023-03-24T01:58:12;3.30;;;1.67;;
1691;SDS011;843;52.054;8.552;2023-03-24T02:00:39;2.27;;;1.70;;
1691;SDS011;843;52.054;8.552;2023-03-24T02:03:06;2.20;;;1.80;;
1691;SDS011;843;52.054;8.552;2023-03-24T02:05:34;2.40;;;2.07;;
1691;SDS011;843;52.054;8.552;2023-03-24T02:08:03;1.97;;;1.60;;
1691;SDS011;843;52.054;8.552;2023-03-24T02:10:32;2.43;;;1.60;;
1691;SDS011;843;52.054;8.552;2023-03-24T02:12:59;1.93;;;1.73;;
1691;SDS011;843;52.054;8.552;2023-03-24T02:15:30;1.70;;;1.57;;
1691;SDS011;843;52.054;8.552;2023-03-24T02:17:59;2.80;;;2.33;;
1691;SDS011;843;52.054;8.552;2023-03-24T02:23:24;2.70;;;1.70;;
1691;SDS011;843;52.054;8.552;2023-03-24T02:28:45;3.87;;;1.80;;
1691;SDS011;843;52.054;8.552;2023-03-24T02:34:19;3.33;;;2.17;;
1691;SDS011;843;52.054;8.552;2023-03-24T02:39:55;3.80;;;2.00;;
1691;SDS011;843;52.054;8.552;2023-03-24T02:42:28;3.33;;;2.60;;
1691;SDS011;843;52.054;8.552;2023-03-24T02:45:01;4.20;;;2.33;;
1691;SDS011;843;52.054;8.552;2023-03-24T02:47:30;2.80;;;2.50;;
1691;SDS011;843;52.054;8.552;2023-03-24T02:50:00;3.63;;;2.63;;
1691;SDS011;843;52.054;8.552;2023-03-24T02:52:31;3.87;;;2.30;;
1691;SDS011;843;52.054;8.552;2023-03-24T02:55:01;3.80;;;2.53;;
1691;SDS011;843;52.054;8.552;2023-03-24T02:57:30;1.60;;;1.40;;
1691;SDS011;843;52.054;8.552;2023-03-24T02:59:58;2.60;;;1.97;;
1691;SDS011;843;52.054;8.552;2023-03-24T03:02:26;2.57;;;2.37;;
1691;SDS011;843;52.054;8.552;2023-03-24T03:04:55;3.40;;;2.13;;
1691;SDS011;843;52.054;8.552;2023-03-24T03:07:25;4.70;;;2.27;;
1691;SDS011;843;52.054;8.552;2023-03-24T03:09:55;2.87;;;2.50;;
1691;SDS011;843;52.054;8.552;2023-03-24T03:12:24;2.73;;;2.50;;
1691;SDS011;843;52.054;8.552;2023-03-24T03:14:53;2.50;;;2.30;;
1691;SDS011;843;52.054;8.552;2023-03-24T03:17:22;4.80;;;2.63;;
1691;SDS011;843;52.054;8.552;2023-03-24T03:19:50;2.63;;;2.43;;
1691;SDS011;843;52.054;8.552;2023-03-24T03:22:20;3.23;;;2.43;;
1691;SDS011;843;52.054;8.552;2023-03-24T03:24:48;3.30;;;2.30;;
1691;SDS011;843;52.054;8.552;2023-03-24T03:27:18;3.63;;;2.53;;
1691;SDS011;843;52.054;8.552;2023-03-24T03:29:48;3.80;;;2.67;;
1691;SDS011;843;52.054;8.552;2023-03-24T03:32:19;3.13;;;2.20;;
1691;SDS011;843;52.054;8.552;2023-03-24T03:34:49;3.07;;;2.33;;
1691;SDS011;843;52.054;8.552;2023-03-24T03:37:19;3.03;;;2.70;;
1691;SDS011;843;52.054;8.552;2023-03-24T03:39:48;3.17;;;2.87;;
1691;SDS011;843;52.054;8.552;2023-03-24T03:42:15;3.17;;;2.53;;
1691;SDS011;843;52.054;8.552;2023-03-24T03:44:41;4.30;;;2.70;;
1691;SDS011;843;52.054;8.552;2023-03-24T03:47:09;4.37;;;3.20;;
1691;SDS011;843;52.054;8.552;2023-03-24T03:49:36;4.00;;;2.90;;
1691;SDS011;843;52.054;8.552;2023-03-24T03:52:03;2.63;;;2.20;;
1691;SDS011;843;52.054;8.552;2023-03-24T03:54:30;4.03;;;3.07;;
1691;SDS011;843;52.054;8.552;2023-03-24T03:56:58;3.50;;;2.70;;
1691;SDS011;843;52.054;8.552;2023-03-24T03:59:26;3.13;;;2.27;;
1691;SDS011;843;52.054;8.552;2023-03-24T04:01:53;3.20;;;2.90;;
1691;SDS011;843;52.054;8.552;2023-03-24T04:04:32;4.10;;;3.33;;
1691;SDS011;843;52.054;8.552;2023-03-24T04:07:06;4.77;;;3.80;;
1691;SDS011;843;52.054;8.552;2023-03-24T04:09:39;4.30;;;2.90;;
1691;SDS011;843;52.054;8.552;2023-03-24T04:12:17;6.00;;;3.17;;
1691;SDS011;843;52.054;8.552;2023-03-24T04:14:57;2.80;;;2.60;;
1691;SDS011;843;52.054;8.552;2023-03-24T04:17:31;5.13;;;3.40;;
1691;SDS011;843;52.054;8.552;2023-03-24T04:20:07;3.97;;;3.20;;
1691;SDS011;843;52.054;8.552;2023-03-24T04:22:38;3.37;;;3.07;;
1691;SDS011;843;52.054;8.552;2023-03-24T04:25:08;9.20;;;3.20;;
1691;SDS011;843;52.054;8.552;2023-03-24T04:27:37;4.23;;;3.10;;
1691;SDS011;843;52.054;8.552;2023-03-24T04:30:07;3.30;;;3.00;;
1691;SDS011;843;52.054;8.552;2023-03-24T04:32:39;3.00;;;2.70;;
1691;SDS011;843;52.054;8.552;2023-03-24T04:35:10;3.90;;;2.83;;
1691;SDS011;843;52.054;8.552;2023-03-24T04:37:38;3.70;;;3.23;;
1691;SDS011;843;52.054;8.552;2023-03-24T04:40:06;3.67;;;3.23;;
1691;SDS011;843;52.054;8.552;2023-03-24T04:42:35;3.10;;;2.80;;
1691;SDS011;843;52.054;8.552;2023-03-24T04:45:02;3.37;;;3.07;;
1691;SDS011;843;52.054;8.552;2023-03-24T04:47:29;3.80;;;2.83;;
1691;SDS011;843;52.054;8.552;2023-03-24T04:50:00;4.30;;;2.93;;
1691;SDS011;843;52.054;8.552;2023-03-24T04:52:28;3.00;;;2.70;;
1691;SDS011;843;52.054;8.552;2023-03-24T04:54:55;4.43;;;3.30;;
1691;SDS011;843;52.054;8.552;2023-03-24T04:57:21;4.60;;;3.03;;
1691;SDS011;843;52.054;8.552;2023-03-24T04:59:48;3.57;;;3.00;;
1691;SDS011;843;52.054;8.552;2023-03-24T05:02:15;3.60;;;3.30;;
1691;SDS011;843;52.054;8.552;2023-03-24T05:04:41;3.57;;;2.97;;
1691;SDS011;843;52.054;8.552;2023-03-24T05:07:07;2.73;;;2.53;;
1691;SDS011;843;52.054;8.552;2023-03-24T05:09:35;4.23;;;3.30;;
1691;SDS011;843;52.054;8.552;2023-03-24T05:12:02;3.00;;;2.70;;
1691;SDS011;843;52.054;8.552;2023-03-24T05:14:28;6.37;;;3.30;;
1691;SDS011;843;52.054;8.552;2023-03-24T05:16:54;3.53;;;3.23;;
1691;SDS011;843;52.054;8.552;2023-03-24T05:19:21;3.67;;;3.37;;
1691;SDS011;843;52.054;8.552;2023-03-24T05:21:47;3.20;;;2.90;;
1691;SDS011;843;52.054;8.552;2023-03-24T05:24:14;3.83;;;2.87;;
1691;SDS011;843;52.054;8.552;2023-03-24T05:26:41;4.47;;;4.07;;
1691;SDS011;843;52.054;8.552;2023-03-24T05:29:08;3.10;;;2.80;;
1691;SDS011;843;52.054;8.552;2023-03-24T05:31:34;6.30;;;3.80;;
1691;SDS011;843;52.054;8.552;2023-03-24T05:34:01;3.70;;;2.97;;
1691;SDS011;843;52.054;8.552;2023-03-24T05:36:27;3.90;;;3.00;;
1691;SDS011;843;52.054;8.552;2023-03-24T05:38:53;3.60;;;3.10;;
1691;SDS011;843;52.054;8.552;2023-03-24T05:41:20;4.60;;;3.50;;
1691;SDS011;843;52.054;8.552;2023-03-24T05:43:48;4.67;;;3.30;;
1691;SDS011;843;52.054;8.552;2023-03-24T05:46:14;5.90;;;3.47;;
1691;SDS011;843;52.054;8.552;2023-03-24T05:48:40;4.17;;;3.53;;
1691;SDS011;843;52.054;8.552;2023-03-24T05:51:08;4.33;;;3.93;;
1691;SDS011;843;52.054;8.552;2023-03-24T05:53:34;4.63;;;4.23;;
1691;SDS011;843;52.054;8.552;2023-03-24T05:56:01;3.90;;;3.60;;
1691;SDS011;843;52.054;8.552;2023-03-24T05:58:27;4.50;;;4.10;;
1691;SDS011;843;52.054;8.552;2023-03-24T06:00:55;5.10;;;3.27;;
1691;SDS011;843;52.054;8.552;2023-03-24T06:03:21;3.40;;;3.10;;
1691;SDS011;843;52.054;8.552;2023-03-24T06:05:47;3.80;;;3.40;;
1691;SDS011;843;52.054;8.552;2023-03-24T06:08:14;4.17;;;3.80;;
1691;SDS011;843;52.054;8.552;2023-03-24T06:10:42;5.77;;;4.10;;
1691;SDS011;843;52.054;8.552;2023-03-24T06:13:09;4.43;;;4.00;;
1691;SDS011;843;52.054;8.552;2023-03-24T06:15:35;5.60;;;3.97;;
1691;SDS011;843;52.054;8.552;2023-03-24T06:18:04;4.67;;;4.23;;
1691;SDS011;843;52.054;8.552;2023-03-24T06:20:32;4.80;;;4.27;;
1691;SDS011;843;52.054;8.552;2023-03-24T06:23:00;4.80;;;4.10;;
1691;SDS011;843;52.054;8.552;2023-03-24T06:25:26;5.50;;;4.43;;
1691;SDS011;843;52.054;8.552;2023-03-24T06:27:54;5.37;;;4.60;;
1691;SDS011;843;52.054;8.552;2023-03-24T06:30:20;5.17;;;4.37;;
1691;SDS011;843;52.054;8.552;2023-03-24T06:32:49;4.37;;;3.87;;
1691;SDS011;843;52.054;8.552;2023-03-24T06:35:17;3.87;;;3.30;;
1691;SDS011;843;52.054;8.552;2023-03-24T06:37:44;3.40;;;2.20;;
1691;SDS011;843;52.054;8.552;2023-03-24T06:40:10;2.43;;;1.83;;
1691;SDS011;843;52.054;8.552;2023-03-24T06:42:39;3.17;;;1.50;;
1691;SDS011;843;52.054;8.552;2023-03-24T06:45:06;1.40;;;0.80;;
1691;SDS011;843;52.054;8.552;2023-03-24T06:47:33;1.00;;;0.90;;
1691;SDS011;843;52.054;8.552;2023-03-24T06:49:59;1.07;;;0.87;;
1691;SDS011;843;52.054;8.552;2023-03-24T06:52:27;2.53;;;0.97;;
1691;SDS011;843;52.054;8.552;2023-03-24T06:54:53;2.30;;;1.10;;
1691;SDS011;843;52.054;8.552;2023-03-24T06:57:21;3.70;;;1.03;;
1691;SDS011;843;52.054;8.552;2023-03-24T06:59:48;4.47;;;1.00;;
1691;SDS011;843;52.054;8.552;2023-03-24T07:02:14;3.47;;;1.00;;
1691;SDS011;843;52.054;8.552;2023-03-24T07:04:41;2.23;;;1.10;;
1691;SDS011;843;52.054;8.552;2023-03-24T07:07:08;2.47;;;1.20;;
1691;SDS011;843;52.054;8.552;2023-03-24T07:09:36;3.83;;;1.37;;
1691;SDS011;843;52.054;8.552;2023-03-24T07:12:03;2.23;;;1.33;;
1691;SDS011;843;52.054;8.552;2023-03-24T07:14:30;2.90;;;1.20;;
1691;SDS011;843;52.054;8.552;2023-03-24T07:16:56;2.83;;;1.20;;
1691;SDS011;843;52.054;8.552;2023-03-24T07:19:23;2.23;;;1.10;;
1691;SDS011;843;52.054;8.552;2023-03-24T07:21:49;5.37;;;1.50;;
1691;SDS011;843;52.054;8.552;2023-03-24T07:24:16;4.23;;;2.07;;
1691;SDS011;843;52.054;8.552;2023-03-24T07:26:44;3.80;;;1.57;;
1691;SDS011;843;52.054;8.552;2023-03-24T07:29:10;2.70;;;1.50;;
1691;SDS011;843;52.054;8.552;2023-03-24T07:31:37;4.10;;;1.53;;
1691;SDS011;843;52.054;8.552;2023-03-24T07:34:04;5.20;;;1.73;;
1691;SDS011;843;52.054;8.552;2023-03-24T07:36:31;3.93;;;1.80;;
1691;SDS011;843;52.054;8.552;2023-03-24T07:38:57;5.50;;;1.97;;
1691;SDS011;843;52.054;8.552;2023-03-24T07:41:24;2.53;;;1.57;;
1691;SDS011;843;52.054;8.552;2023-03-24T07:43:53;5.77;;;2.20;;
1691;SDS011;843;52.054;8.552;2023-03-24T07:46:19;6.10;;;2.30;;
1691;SDS011;843;52.054;8.552;2023-03-24T07:48:46;4.67;;;2.20;;
1691;SDS011;843;52.054;8.552;2023-03-24T07:51:12;6.77;;;4.13;;
1691;SDS011;843;52.054;8.552;2023-03-24T07:53:38;9.83;;;2.63;;
1691;SDS011;843;52.054;8.552;2023-03-24T07:56:05;6.37;;;2.43;;
1691;SDS011;843;52.054;8.552;2023-03-24T07:58:31;4.10;;;2.60;;
1691;SDS011;843;52.054;8.552;2023-03-24T08:01:02;6.90;;;2.40;;
1691;SDS011;843;52.054;8.552;2023-03-24T08:03:28;4.33;;;2.40;;
1691;SDS011;843;52.054;8.552;2023-03-24T08:05:55;5.53;;;2.33;;
1691;SDS011;843;52.054;8.552;2023-03-24T08:08:21;5.37;;;2.60;;
1691;SDS011;843;52.054;8.552;2023-03-24T08:10:48;7.83;;;2.53;;
1691;SDS011;843;52.054;8.552;2023-03-24T08:13:15;5.20;;;2.47;;
1691;SDS011;843;52.054;8.552;2023-03-24T08:15:42;6.13;;;2.97;;
1691;SDS011;843;52.054;8.552;2023-03-24T08:18:09;5.57;;;2.77;;
1691;SDS011;843;52.054;8.552;2023-03-24T08:20:36;6.20;;;2.90;;
1691;SDS011;843;52.054;8.552;2023-03-24T08:23:02;8.03;;;3.80;;
1691;SDS011;843;52.054;8.552;2023-03-24T08:25:32;6.30;;;2.60;;
1691;SDS011;843;52.054;8.552;2023-03-24T08:27:59;9.50;;;3.33;;
1691;SDS011;843;52.054;8.552;2023-03-24T08:30:26;11.53;;;3.50;;
1691;SDS011;843;52.054;8.552;2023-03-24T08:32:54;9.80;;;3.13;;
1691;SDS011;843;52.054;8.552;2023-03-24T08:35:22;6.40;;;2.90;;
1691;SDS011;843;52.054;8.552;2023-03-24T08:37:49;11.10;;;3.50;;
1691;SDS011;843;52.054;8.552;2023-03-24T08:40:17;9.73;;;3.33;;
1691;SDS011;843;52.054;8.552;2023-03-24T08:42:46;7.63;;;2.53;;
1691;SDS011;843;52.054;8.552;2023-03-24T08:45:13;6.30;;;2.50;;
1691;SDS011;843;52.054;8.552;2023-03-24T08:47:39;7.30;;;2.67;;
1691;SDS011;843;52.054;8.552;2023-03-24T08:50:06;5.70;;;2.40;;
1691;SDS011;843;52.054;8.552;2023-03-24T08:52:34;5.67;;;2.70;;
1691;SDS011;843;52.054;8.552;2023-03-24T08:55:01;6.43;;;1.90;;
1691;SDS011;843;52.054;8.552;2023-03-24T08:57:28;8.50;;;2.37;;
1691;SDS011;843;52.054;8.552;2023-03-24T08:59:54;5.30;;;2.73;;
1691;SDS011;843;52.054;8.552;2023-03-24T09:02:20;7.07;;;1.90;;
1691;SDS011;843;52.054;8.552;2023-03-24T09:04:47;4.80;;;2.27;;
1691;SDS011;843;52.054;8.552;2023-03-24T09:07:17;6.43;;;2.73;;
1691;SDS011;843;52.054;8.552;2023-03-24T09:09:45;8.10;;;2.43;;
1691;SDS011;843;52.054;8.552;2023-03-24T09:12:12;7.03;;;2.77;;
1691;SDS011;843;52.054;8.552;2023-03-24T09:14:38;5.50;;;2.00;;
1691;SDS011;843;52.054;8.552;2023-03-24T09:17:04;5.80;;;2.47;;
1691;SDS011;843;52.054;8.552;2023-03-24T09:19:31;3.80;;;2.23;;
1691;SDS011;843;52.054;8.552;2023-03-24T09:21:58;8.13;;;2.80;;
1691;SDS011;843;52.054;8.552;2023-03-24T09:24:24;6.70;;;2.80;;
1691;SDS011;843;52.054;8.552;2023-03-24T09:26:52;7.77;;;2.27;;
1691;SDS011;843;52.054;8.552;2023-03-24T09:29:19;5.77;;;1.93;;
1691;SDS011;843;52.054;8.552;2023-03-24T09:31:45;6.50;;;2.40;;
1691;SDS011;843;52.054;8.552;2023-03-24T09:34:11;10.90;;;2.90;;
1691;SDS011;843;52.054;8.552;2023-03-24T09:36:38;5.47;;;3.20;;
1691;SDS011;843;52.054;8.552;2023-03-24T09:39:04;3.30;;;1.97;;
1691;SDS011;843;52.054;8.552;2023-03-24T09:41:31;5.63;;;2.47;;
1691;SDS011;843;52.054;8.552;2023-03-24T09:43:59;7.20;;;1.73;;
1691;SDS011;843;52.054;8.552;2023-03-24T09:46:29;10.47;;;2.20;;
1691;SDS011;843;52.054;8.552;2023-03-24T09:48:56;3.90;;;2.00;;
1691;SDS011;843;52.054;8.552;2023-03-24T09:51:24;6.77;;;2.00;;
1691;SDS011;843;52.054;8.552;2023-03-24T09:53:51;8.23;;;2.60;;
1691;SDS011;843;52.054;8.552;2023-03-24T09:56:20;6.53;;;2.33;;
1691;SDS011;843;52.054;8.552;2023-03-24T09:58:48;3.70;;;1.63;;
1691;SDS011;843;52.054;8.552;2023-03-24T10:01:17;9.73;;;2.20;;
1691;SDS011;843;52.054;8.552;2023-03-24T10:03:45;6.80;;;2.07;;
1691;SDS011;843;52.054;8.552;2023-03-24T10:06:14;4.00;;;1.80;;
1691;SDS011;843;52.054;8.552;2023-03-24T10:08:42;7.63;;;1.93;;
1691;SDS011;843;52.054;8.552;2023-03-24T10:11:12;2.87;;;1.47;;
1691;SDS011;843;52.054;8.552;2023-03-24T10:13:48;9.43;;;2.80;;
1691;SDS011;843;52.054;8.552;2023-03-24T10:16:17;6.40;;;2.00;;
1691;SDS011;843;52.054;8.552;2023-03-24T10:18:48;7.50;;;1.90;;
1691;SDS011;843;52.054;8.552;2023-03-24T10:21:18;8.40;;;1.90;;
1691;SDS011;843;52.054;8.552;2023-03-24T10:23:47;8.87;;;1.90;;
1691;SDS011;843;52.054;8.552;2023-03-24T10:26:20;8.80;;;1.87;;
1691;SDS011;843;52.054;8.552;2023-03-24T10:28:49;5.80;;;1.80;;
1691;SDS011;843;52.054;8.552;2023-03-24T10:31:16;6.03;;;2.00;;
1691;SDS011;843;52.054;8.552;2023-03-24T10:33:45;8.37;;;2.10;;
1691;SDS011;843;52.054;8.552;2023-03-24T10:36:13;7.80;;;2.30;;
1691;SDS011;843;52.054;8.552;2023-03-24T10:38:42;8.23;;;2.00;;
1691;SDS011;843;52.054;8.552;2023-03-24T10:41:11;6.10;;;1.40;;
1691;SDS011;843;52.054;8.552;2023-03-24T10:43:40;6.80;;;2.07;;
1691;SDS011;843;52.054;8.552;2023-03-24T10:46:07;7.60;;;1.90;;
1691;SDS011;843;52.054;8.552;2023-03-24T10:48:39;7.93;;;1.47;;
1691;SDS011;843;52.054;8.552;2023-03-24T10:51:11;4.40;;;1.70;;
1691;SDS011;843;52.054;8.552;2023-03-24T10:53:39;5.47;;;1.70;;
1691;SDS011;843;52.054;8.552;2023-03-24T10:56:06;3.63;;;1.50;;
1691;SDS011;843;52.054;8.552;2023-03-24T10:58:34;4.47;;;1.80;;
1691;SDS011;843;52.054;8.552;2023-03-24T11:01:01;4.43;;;1.50;;
1691;SDS011;843;52.054;8.552;2023-03-24T11:03:29;3.60;;;1.43;;
1691;SDS011;843;52.054;8.552;2023-03-24T11:05:56;9.67;;;2.03;;
1691;SDS011;843;52.054;8.552;2023-03-24T11:08:25;7.67;;;1.80;;
1691;SDS011;843;52.054;8.552;2023-03-24T11:10:53;9.53;;;1.63;;
1691;SDS011;843;52.054;8.552;2023-03-24T11:13:25;5.63;;;1.33;;
1691;SDS011;843;52.054;8.552;2023-03-24T11:15:54;5.50;;;1.60;;
1691;SDS011;843;52.054;8.552;2023-03-24T11:18:21;5.23;;;1.23;;
1691;SDS011;843;52.054;8.552;2023-03-24T11:20:49;5.77;;;1.30;;
1691;SDS011;843;52.054;8.552;2023-03-24T11:23:18;4.30;;;1.43;;
1691;SDS011;843;52.054;8.552;2023-03-24T11:25:46;7.00;;;1.50;;
1691;SDS011;843;52.054;8.552;2023-03-24T11:28:16;6.80;;;1.40;;
1691;SDS011;843;52.054;8.552;2023-03-24T11:30:44;5.83;;;1.30;;
1691;SDS011;843;52.054;8.552;2023-03-24T11:33:12;5.27;;;1.53;;
1691;SDS011;843;52.054;8.552;2023-03-24T11:35:38;5.50;;;1.83;;
1691;SDS011;843;52.054;8.552;2023-03-24T11:38:06;5.80;;;1.63;;
1691;SDS011;843;52.054;8.552;2023-03-24T11:40:32;5.30;;;1.60;;
1691;SDS011;843;52.054;8.552;2023-03-24T11:43:00;6.10;;;1.50;;
1691;SDS011;843;52.054;8.552;2023-03-24T11:45:33;6.97;;;2.60;;
1691;SDS011;843;52.054;8.552;2023-03-24T11:48:01;5.57;;;1.53;;
1691;SDS011;843;52.054;8.552;2023-03-24T11:50:30;6.33;;;1.60;;
1691;SDS011;843;52.054;8.552;2023-03-24T11:53:00;7.40;;;1.97;;
1691;SDS011;843;52.054;8.552;2023-03-24T11:55:32;6.83;;;1.50;;
1691;SDS011;843;52.054;8.552;2023-03-24T11:58:00;5.73;;;1.67;;
1691;SDS011;843;52.054;8.552;2023-03-24T12:00:30;7.77;;;1.90;;
1691;SDS011;843;52.054;8.552;2023-03-24T12:03:02;5.03;;;1.63;;
1691;SDS011;843;52.054;8.552;2023-03-24T12:05:30;5.17;;;1.57;;
1691;SDS011;843;52.054;8.552;2023-03-24T12:08:05;3.23;;;1.17;;
1691;SDS011;843;52.054;8.552;2023-03-24T12:10:38;3.90;;;1.33;;
1691;SDS011;843;52.054;8.552;2023-03-24T12:13:06;6.07;;;1.70;;
1691;SDS011;843;52.054;8.552;2023-03-24T12:15:38;5.03;;;1.90;;
1691;SDS011;843;52.054;8.552;2023-03-24T12:18:12;5.83;;;1.70;;
1691;SDS011;843;52.054;8.552;2023-03-24T12:20:42;3.90;;;1.70;;
1691;SDS011;843;52.054;8.552;2023-03-24T12:23:14;4.33;;;1.80;;
1691;SDS011;843;52.054;8.552;2023-03-24T12:25:51;4.57;;;1.83;;
1691;SDS011;843;52.054;8.552;2023-03-24T12:28:24;5.67;;;1.23;;
1691;SDS011;843;52.054;8.552;2023-03-24T12:30:58;6.33;;;1.83;;
1691;SDS011;843;52.054;8.552;2023-03-24T12:33:32;9.43;;;1.70;;
1691;SDS011;843;52.054;8.552;2023-03-24T12:36:09;5.13;;;1.77;;
1691;SDS011;843;52.054;8.552;2023-03-24T12:38:39;4.00;;;1.40;;
1691;SDS011;843;52.054;8.552;2023-03-24T12:44:02;7.10;;;1.67;;
1691;SDS011;843;52.054;8.552;2023-03-24T12:46:34;5.60;;;1.97;;
1691;SDS011;843;52.054;8.552;2023-03-24T12:51:53;11.13;;;2.10;;
1691;SDS011;843;52.054;8.552;2023-03-24T12:54:27;8.53;;;2.57;;
1691;SDS011;843;52.054;8.552;2023-03-24T12:56:59;5.53;;;2.07;;
1691;SDS011;843;52.054;8.552;2023-03-24T12:59:28;5.70;;;2.07;;
1691;SDS011;843;52.054;8.552;2023-03-24T13:02:02;6.43;;;2.10;;
1691;SDS011;843;52.054;8.552;2023-03-24T13:04:35;3.70;;;1.50;;
1691;SDS011;843;52.054;8.552;2023-03-24T13:07:05;3.17;;;1.83;;
1691;SDS011;843;52.054;8.552;2023-03-24T13:09:34;4.63;;;1.33;;
1691;SDS011;843;52.054;8.552;2023-03-24T13:12:04;4.67;;;1.70;;
1691;SDS011;843;52.054;8.552;2023-03-24T13:14:33;6.70;;;2.07;;
1691;SDS011;843;52.054;8.552;2023-03-24T13:17:06;12.07;;;1.90;;
1691;SDS011;843;52.054;8.552;2023-03-24T13:19:38;7.60;;;1.90;;
1691;SDS011;843;52.054;8.552;2023-03-24T13:22:05;5.43;;;2.40;;
1691;SDS011;843;52.054;8.552;2023-03-24T13:24:36;6.83;;;2.10;;
1691;SDS011;843;52.054;8.552;2023-03-24T13:27:05;5.17;;;1.83;;
1691;SDS011;843;52.054;8.552;2023-03-24T13:29:44;13.73;;;3.00;;
1691;SDS011;843;52.054;8.552;2023-03-24T13:32:15;2.97;;;1.40;;
1691;SDS011;843;52.054;8.552;2023-03-24T13:34:44;5.50;;;1.43;;
1691;SDS011;843;52.054;8.552;2023-03-24T13:37:13;7.20;;;1.40;;
1691;SDS011;843;52.054;8.552;2023-03-24T13:39:41;3.73;;;1.73;;
1691;SDS011;843;52.054;8.552;2023-03-24T13:42:19;3.60;;;1.20;;
1691;SDS011;843;52.054;8.552;2023-03-24T13:44:52;5.30;;;1.97;;
1691;SDS011;843;52.054;8.552;2023-03-24T13:47:20;3.80;;;1.83;;
1691;SDS011;843;52.054;8.552;2023-03-24T13:49:51;7.53;;;1.77;;
1691;SDS011;843;52.054;8.552;2023-03-24T13:52:20;8.03;;;2.03;;
1691;SDS011;843;52.054;8.552;2023-03-24T13:54:47;5.77;;;1.83;;
1691;SDS011;843;52.054;8.552;2023-03-24T13:57:15;3.17;;;1.50;;
1691;SDS011;843;52.054;8.552;2023-03-24T13:59:56;6.70;;;1.80;;
1691;SDS011;843;52.054;8.552;2023-03-24T14:02:44;7.57;;;1.70;;
1691;SDS011;843;52.054;8.552;2023-03-24T14:05:28;4.67;;;1.60;;
1691;SDS011;843;52.054;8.552;2023-03-24T14:08:08;4.23;;;1.67;;
1691;SDS011;843;52.054;8.552;2023-03-24T14:10:40;2.47;;;1.63;;
1691;SDS011;843;52.054;8.552;2023-03-24T14:15:48;6.20;;;1.63;;
1691;SDS011;843;52.054;8.552;2023-03-24T14:18:38;5.03;;;1.73;;
1691;SDS011;843;52.054;8.552;2023-03-24T14:21:05;4.07;;;1.53;;
1691;SDS011;843;52.054;8.552;2023-03-24T14:23:33;3.70;;;1.63;;
1691;SDS011;843;52.054;8.552;2023-03-24T14:26:01;4.77;;;2.00;;
1691;SDS011;843;52.054;8.552;2023-03-24T14:28:29;9.90;;;2.10;;
1691;SDS011;843;52.054;8.552;2023-03-24T14:31:00;4.60;;;1.53;;
1691;SDS011;843;52.054;8.552;2023-03-24T14:33:27;5.50;;;1.77;;
1691;SDS011;843;52.054;8.552;2023-03-24T14:35:56;8.27;;;2.20;;
1691;SDS011;843;52.054;8.552;2023-03-24T14:38:25;4.17;;;1.70;;
1691;SDS011;843;52.054;8.552;2023-03-24T14:40:55;5.87;;;1.90;;
1691;SDS011;843;52.054;8.552;2023-03-24T14:43:22;9.50;;;1.83;;
1691;SDS011;843;52.054;8.552;2023-03-24T14:45:53;6.40;;;2.43;;
1691;SDS011;843;52.054;8.552;2023-03-24T14:48:27;4.27;;;1.63;;
1691;SDS011;843;52.054;8.552;2023-03-24T14:50:54;6.50;;;1.90;;
1691;SDS011;843;52.054;8.552;2023-03-24T14:53:25;3.53;;;1.33;;
1691;SDS011;843;52.054;8.552;2023-03-24T14:55:51;3.40;;;2.03;;
1691;SDS011;843;52.054;8.552;2023-03-24T14:58:20;5.90;;;2.00;;
1691;SDS011;843;52.054;8.552;2023-03-24T15:00:47;4.57;;;2.57;;
1691;SDS011;843;52.054;8.552;2023-03-24T15:03:16;6.53;;;2.17;;
1691;SDS011;843;52.054;8.552;2023-03-24T15:05:44;3.50;;;1.87;;
1691;SDS011;843;52.054;8.552;2023-03-24T15:08:11;3.77;;;2.13;;
1691;SDS011;843;52.054;8.552;2023-03-24T15:10:40;4.37;;;1.90;;
1691;SDS011;843;52.054;8.552;2023-03-24T15:16:15;5.63;;;1.57;;
1691;SDS011;843;52.054;8.552;2023-03-24T15:18:42;5.03;;;2.00;;
1691;SDS011;843;52.054;8.552;2023-03-24T15:21:14;2.80;;;0.90;;
1691;SDS011;843;52.054;8.552;2023-03-24T15:23:44;1.40;;;0.90;;
1691;SDS011;843;52.054;8.552;2023-03-24T15:26:12;5.47;;;1.30;;
1691;SDS011;843;52.054;8.552;2023-03-24T15:28:39;3.10;;;1.20;;
1691;SDS011;843;52.054;8.552;2023-03-24T15:31:06;1.30;;;0.90;;
1691;SDS011;843;52.054;8.552;2023-03-24T15:33:37;1.23;;;1.13;;
1691;SDS011;843;52.054;8.552;2023-03-24T15:36:11;3.50;;;1.30;;
1691;SDS011;843;52.054;8.552;2023-03-24T15:38:38;2.73;;;1.10;;
1691;SDS011;843;52.054;8.552;2023-03-24T15:41:11;3.10;;;1.47;;
1691;SDS011;843;52.054;8.552;2023-03-24T15:43:41;1.93;;;0.90;;
1691;SDS011;843;52.054;8.552;2023-03-24T15:46:17;1.27;;;0.80;;
1691;SDS011;843;52.054;8.552;2023-03-24T15:48:45;1.90;;;0.90;;
1691;SDS011;843;52.054;8.552;2023-03-24T15:51:11;2.13;;;0.80;;
1691;SDS011;843;52.054;8.552;2023-03-24T15:53:39;3.17;;;1.10;;
1691;SDS011;843;52.054;8.552;2023-03-24T15:56:14;1.10;;;0.70;;
1691;SDS011;843;52.054;8.552;2023-03-24T15:58:45;0.77;;;0.50;;
1691;SDS011;843;52.054;8.552;2023-03-24T16:01:12;2.97;;;0.90;;
1691;SDS011;843;52.054;8.552;2023-03-24T16:03:41;1.00;;;0.93;;